Colfax, Kentucky
Current Conditions -  °F | °C
As of 11:10 AM on Monday 26 Jan 2015 (Local Time) from KSYM Reporting Station
Overcast Overcast  
Wind Chill: 12°   Ceiling: 1000
Heat Index: 23°   Visibility: 8mi
Dew Point: 19°   Wind: 10mph
Humidity: 86%   Direction: 300°WNW
Pressure: 29.9"   Gusts: 18mph
Location:  38.2838°N, 83.678°W
Report Text: KSYM 261610Z AUTO 30009G16KT 8SM OVC010 M05/M07 A2990 RMK AO2
Loading
Personal Weather Stations






























Interactive Weather Map New forecast layout! Learn more

10-Day Weather Forecast

Advertisements
Track Severe Weather on mobile